地図

経路データ

SID SEASON NUMBER BASIN SUBBASIN NAME ISO_TIME NATURE LAT LON WMO_WIND WMO_PRES WMO_AGENCY TRACK_TYPE DIST2LAND LANDFALL IFLAG USA_AGENCY USA_ATCF_ID USA_LAT USA_LON USA_RECORD USA_STATUS USA_WIND USA_PRES USA_SSHS USA_R34_NE USA_R34_SE USA_R34_SW USA_R34_NW USA_R50_NE USA_R50_SE USA_R50_SW USA_R50_NW USA_R64_NE USA_R64_SE USA_R64_SW USA_R64_NW USA_POCI USA_ROCI USA_RMW USA_EYE TOKYO_LAT TOKYO_LON TOKYO_GRADE TOKYO_WIND TOKYO_PRES TOKYO_R50_DIR TOKYO_R50_LONG TOKYO_R50_SHORT TOKYO_R30_DIR TOKYO_R30_LONG TOKYO_R30_SHORT TOKYO_LAND CMA_LAT CMA_LON CMA_CAT CMA_WIND CMA_PRES HKO_LAT HKO_LON HKO_CAT HKO_WIND HKO_PRES NEWDELHI_LAT NEWDELHI_LON NEWDELHI_GRADE NEWDELHI_WIND NEWDELHI_PRES NEWDELHI_CI NEWDELHI_DP NEWDELHI_POCI REUNION_LAT REUNION_LON REUNION_TYPE REUNION_WIND REUNION_PRES REUNION_TNUM REUNION_CI REUNION_RMW REUNION_R34_NE REUNION_R34_SE REUNION_R34_SW REUNION_R34_NW REUNION_R50_NE REUNION_R50_SE REUNION_R50_SW REUNION_R50_NW REUNION_R64_NE REUNION_R64_SE REUNION_R64_SW REUNION_R64_NW BOM_LAT BOM_LON BOM_TYPE BOM_WIND BOM_PRES BOM_TNUM BOM_CI BOM_RMW BOM_R34_NE BOM_R34_SE BOM_R34_SW BOM_R34_NW BOM_R50_NE BOM_R50_SE BOM_R50_SW BOM_R50_NW BOM_R64_NE BOM_R64_SE BOM_R64_SW BOM_R64_NW BOM_ROCI BOM_POCI BOM_EYE BOM_POS_METHOD BOM_PRES_METHOD NADI_LAT NADI_LON NADI_CAT NADI_WIND NADI_PRES WELLINGTON_LAT WELLINGTON_LON WELLINGTON_WIND WELLINGTON_PRES DS824_LAT DS824_LON DS824_STAGE DS824_WIND DS824_PRES TD9636_LAT TD9636_LON TD9636_STAGE TD9636_WIND TD9636_PRES TD9635_LAT TD9635_LON TD9635_WIND TD9635_PRES TD9635_ROCI NEUMANN_LAT NEUMANN_LON NEUMANN_CLASS NEUMANN_WIND NEUMANN_PRES MLC_LAT MLC_LON MLC_CLASS MLC_WIND MLC_PRES USA_GUST BOM_GUST BOM_GUST_PER REUNION_GUST REUNION_GUST_PER USA_SEAHGT USA_SEARAD_NE USA_SEARAD_SE USA_SEARAD_SW USA_SEARAD_NW STORM_SPEED STORM_DIR
1996246N08148 1996 76 WP MM SALLY 1996-09-02 00:00:00 NR 8.10000 147.700 main 1143 1143 O_____________ jtwc_wp WP231996 8.10000 147.700 15 -1 11 292
1996246N08148 1996 76 WP MM SALLY 1996-09-02 03:00:00 NR 8.29766 147.195 main 1165 1165 P_____________ WP231996 8.29766 147.195 15 -1 11 292
1996246N08148 1996 76 WP MM SALLY 1996-09-02 06:00:00 NR 8.50000 146.700 main 1187 1187 O_____________ jtwc_wp WP231996 8.50000 146.700 15 -1 11 293
1996246N08148 1996 76 WP MM SALLY 1996-09-02 09:00:00 NR 8.70737 146.215 main 1211 1211 P_____________ WP231996 8.70737 146.215 15 -1 11 292
1996246N08148 1996 76 WP MM SALLY 1996-09-02 12:00:00 NR 8.90000 145.700 main 1236 1236 O_____________ jtwc_wp WP231996 8.90000 145.700 15 -1 11 287
1996246N08148 1996 76 WP MM SALLY 1996-09-02 15:00:00 NR 9.03489 145.130 main 1254 1254 P_____________ WP231996 9.03489 145.130 15 -1 12 284
1996246N08148 1996 76 WP MM SALLY 1996-09-02 18:00:00 NR 9.20000 144.500 main 1287 1287 O_____________ jtwc_wp WP231996 9.20000 144.500 15 -1 14 289
1996246N08148 1996 76 WP MM SALLY 1996-09-02 21:00:00 NR 9.46990 143.822 main 1336 1336 P_____________ WP231996 9.46990 143.822 15 -1 15 293
1996246N08148 1996 76 WP MM SALLY 1996-09-03 00:00:00 NR 9.80000 143.100 main 1388 1383 O_____________ jtwc_wp WP231996 9.80000 143.100 15 -1 16 295
1996246N08148 1996 76 WP MM SALLY 1996-09-03 03:00:00 NR 10.1349 142.350 main 1387 1387 P_____________ WP231996 10.1349 142.350 17 -1 16 295
1996246N08148 1996 76 WP MM SALLY 1996-09-03 06:00:00 NR 10.5000 141.600 main 1407 1404 O_____________ jtwc_wp WP231996 10.5000 141.600 20 -1 16 298
1996246N08148 1996 76 WP MM SALLY 1996-09-03 09:00:00 NR 10.8921 140.922 main 1422 1418 P_____________ WP231996 10.8921 140.922 20 -1 16 300
1996246N08148 1996 76 WP MM SALLY 1996-09-03 12:00:00 NR 11.3000 140.200 main 1436 1433 O_____________ jtwc_wp WP231996 11.3000 140.200 20 -1 18 297
1996246N08148 1996 76 WP MM SALLY 1996-09-03 15:00:00 NR 11.7228 139.293 main 1448 1372 P_____________ WP231996 11.7228 139.293 20 -1 19 294
1996246N08148 1996 76 WP MM SALLY 1996-09-03 18:00:00 NR 12.1000 138.400 main 1372 1305 O_____________ jtwc_wp WP231996 12.1000 138.400 20 -1 17 293
1996246N08148 1996 76 WP MM SALLY 1996-09-03 21:00:00 NR 12.3722 137.690 main 1305 1243 P_____________ WP231996 12.3722 137.690 20 -1 14 291
1996246N08148 1996 76 WP MM SALLY 1996-09-04 00:00:00 NR 12.6000 137.100 main 1243 1192 O_____________ jtwc_wp WP231996 12.6000 137.100 20 -1 12 293
1996246N08148 1996 76 WP MM SALLY 1996-09-04 03:00:00 NR 12.8499 136.555 main 1192 1145 P_____________ WP231996 12.8499 136.555 20 -1 11 297
1996246N08148 1996 76 WP MM SALLY 1996-09-04 06:00:00 NR 13.1000 136.100 main 1145 1107 O_____________ jtwc_wp WP231996 13.1000 136.100 20 -1 10 302
1996246N08148 1996 76 WP MM SALLY 1996-09-04 09:00:00 NR 13.3574 135.720 main 1109 1083 P_____________ WP231996 13.3574 135.720 22 -1 8 306
1996246N08148 1996 76 WP MM SALLY 1996-09-04 12:00:00 NR 13.6000 135.400 main 1083 1055 O_____________ jtwc_wp WP231996 13.6000 135.400 25 -1 8 307
1996246N08148 1996 76 WP MM SALLY 1996-09-04 15:00:00 NR 13.8149 135.092 main 1055 1027 P_____________ WP231996 13.8149 135.092 25 -1 7 304
1996246N08148 1996 76 WP MM SALLY 1996-09-04 18:00:00 NR 14.0000 134.800 main 1027 997 O_____________ jtwc_wp WP231996 14.0000 134.800 25 -1 7 301
1996246N08148 1996 76 WP MM SALLY 1996-09-04 21:00:00 NR 14.1575 134.500 main 1000 979 P_____________ WP231996 14.1575 134.500 25 -1 5 296
1996246N08148 1996 76 WP MM SALLY 1996-09-05 00:00:00 TS 14.2167 134.333 1004 tokyo main 979 963 OOO___________ jtwc_wp WP231996 14.3000 134.200 25 -1 15.1000 134.200 2 1004 0 0 0 13.0000 135.000 0 19 1004 5 306
1996246N08148 1996 76 WP MM SALLY 1996-09-05 03:00:00 TS 14.4494 134.079 main 963 930 PPP___________ WP231996 14.4425 133.900 27 -1 15.2576 133.910 2 1003 0 0 13.6551 134.608 0 19 1004 8 310
1996246N08148 1996 76 WP MM SALLY 1996-09-05 06:00:00 TS 14.7273 133.709 1002 tokyo main 930 906 OOOO__________ jtwc_wp WP231996 14.6000 133.600 30 -1 15.4000 133.600 2 1002 0 0 0 14.2000 134.200 0 19 1004 14.8000 133.000 TD 30 998 9 304
1996246N08148 1996 76 WP MM SALLY 1996-09-05 09:00:00 TS 14.9292 133.349 main 896 869 PPPP__________ WP231996 14.7849 133.307 32 -1 15.5150 133.257 2 1001 0 0 14.5599 133.765 0 21 1003 14.7851 132.785 TD 30 998 8 296
1996246N08148 1996 76 WP MM SALLY 1996-09-05 12:00:00 TS 15.0667 132.973 1000 tokyo main 873 837 OOOO__________ jtwc_wp WP231996 15.0000 133.000 35 0 15.6000 132.900 2 1000 0 0 0 14.8000 133.300 1 23 1002 14.8000 132.600 TD 30 998 8 290
1996246N08148 1996 76 WP MM SALLY 1996-09-05 15:00:00 TS 15.1906 132.614 main 837 812 PPPP__________ WP231996 15.2425 132.657 37 0 15.6349 132.557 2 1000 0 0 15.0151 132.785 1 26 1001 14.8699 132.457 TD 30 998 7 293
1996246N08148 1996 76 WP MM SALLY 1996-09-05 18:00:00 TS 15.3500 132.275 1000 tokyo main 817 793 OOOO__________ jtwc_wp WP231996 15.5000 132.300 40 0 15.7000 132.200 2 1000 0 0 0 15.2000 132.300 1 29 1000 15.0000 132.300 TD 30 998 7 297
1996246N08148 1996 76 WP MM SALLY 1996-09-05 21:00:00 TS 15.5154 131.963 main 793 766 PPPP__________ WP231996 15.7348 131.980 45 0 15.8700 131.808 2 998 0 0 15.3471 131.964 1 31 999 15.1099 132.102 TD 32 996 8 303
1996246N08148 1996 76 WP MM SALLY 1996-09-06 00:00:00 TS 15.7750 131.600 35 996 tokyo main 771 754 OOOO__________ jtwc_wp WP231996 16.0000 131.600 50 0 16.1000 131.400 3 35 996 0 9 100 100 0 15.6000 131.600 2 34 998 15.4000 131.800 TS 35 994 11 311
1996246N08148 1996 76 WP MM SALLY 1996-09-06 03:00:00 TS 16.2319 131.122 main 751 735 PPPP__________ WP231996 16.3500 131.088 57 0 16.3348 131.022 3 40 993 0 9 115 115 16.1428 131.016 2 36 996 16.0999 131.361 TS 35 994 14 313
1996246N08148 1996 76 WP MM SALLY 1996-09-06 06:00:00 TS 16.7000 130.575 45 990 tokyo main 735 702 OOOO__________ jtwc_wp WP231996 16.7000 130.500 65 1 16.6000 130.600 3 45 990 0 9 130 130 0 16.7000 130.400 2 38 995 16.8000 130.800 TS 35 994 13 306
1996246N08148 1996 76 WP MM SALLY 1996-09-06 09:00:00 TS 16.9892 130.031 main 693 659 PPPP__________ WP231996 16.9724 129.900 70 1 16.9074 130.088 3 47 987 0 9 140 140 17.0020 129.957 2 43 990 17.0749 130.179 TS 40 992 12 295
1996246N08148 1996 76 WP MM SALLY 1996-09-06 12:00:00 TS 17.2000 129.450 50 985 tokyo main 659 621 OOOO__________ jtwc_wp WP231996 17.2000 129.300 75 1 17.2000 129.500 4 50 985 0 9 150 150 0 17.2000 129.500 3 48 985 17.2000 129.500 TS 45 990 12 290
1996246N08148 1996 76 WP MM SALLY 1996-09-06 15:00:00 TS 17.3979 128.835 main 612 580 PPPP__________ WP231996 17.3993 128.794 77 1 17.3999 128.865 4 52 982 0 9 155 155 17.4000 128.887 3 48 985 17.3925 128.792 TS 50 986 13 288
1996246N08148 1996 76 WP MM SALLY 1996-09-06 18:00:00 TS 17.6000 128.175 55 980 tokyo main 580 538 OOOO__________ jtwc_wp WP231996 17.6000 128.200 80 1 17.6000 128.200 4 55 980 9 50 50 9 160 160 0 17.6000 128.200 3 48 985 17.6000 128.100 STS 55 982 14 289
1996246N08148 1996 76 WP MM SALLY 1996-09-06 21:00:00 TS 17.8530 127.479 main 539 472 PPPP__________ WP231996 17.8429 127.338 85 2 17.8921 127.565 4 57 977 9 55 55 9 160 160 17.8348 127.507 3 53 982 17.8419 127.507 STS 60 977 15 291
1996246N08148 1996 76 WP MM SALLY 1996-09-07 00:00:00 TS 18.1250 126.750 60 975 tokyo main 472 400 OOOO__________ jtwc_wp WP231996 18.1000 126.400 90 2 18.2000 126.900 4 60 975 9 60 60 9 160 160 0 18.1000 126.800 3 58 980 18.1000 126.900 T 65 972 15 292
1996246N08148 1996 76 WP MM SALLY 1996-09-07 03:00:00 TS 18.4058 126.026 main 390 317 PPPP__________ WP231996 18.3645 125.585 95 2 18.4721 126.187 4 62 972 9 65 65 9 170 170 18.4218 126.138 3 63 975 18.3647 126.195 T 70 967 15 290
1996246N08148 1996 76 WP MM SALLY 1996-09-07 06:00:00 TS 18.6500 125.250 65 970 tokyo main 318 225 OOOO__________ jtwc_wp WP231996 18.6000 124.800 100 3 18.7000 125.400 5 65 970 9 70 70 9 180 180 0 18.7000 125.400 4 68 970 18.6000 125.400 T 75 962 16 284
1996246N08148 1996 76 WP MM SALLY 1996-09-07 09:00:00 TS 18.8081 124.377 main 225 138 PPPP__________ WP231996 18.7721 124.007 107 3 18.8725 124.515 5 70 965 9 80 80 9 180 180 18.8229 124.464 4 72 965 18.7649 124.522 T 80 956 17 279
1996246N08148 1996 76 WP MM SALLY 1996-09-07 12:00:00 TS 18.9250 123.475 75 960 tokyo main 138 79 OOOO__________ jtwc_wp WP231996 18.9000 123.200 115 4 19.0000 123.600 5 75 960 9 90 90 9 180 180 0 18.9000 123.500 4 77 960 18.9000 123.600 ST 85 950 17 279
1996246N08148 1996 76 WP MM SALLY 1996-09-07 15:00:00 TS 19.0549 122.640 main 84 78 PPPP__________ WP231996 18.9996 122.365 127 4 19.1067 122.765 5 77 955 9 95 95 9 190 190 19.0488 122.715 4 77 960 19.0643 122.715 ST 90 942 16 279
1996246N08148 1996 76 WP MM SALLY 1996-09-07 18:00:00 TS 19.1750 121.775 80 950 tokyo main 88 67 OOOO__________ jtwc_wp WP231996 19.1000 121.500 140 5 19.2000 121.900 5 80 950 9 100 100 9 200 200 0 19.2000 121.900 4 77 960 19.2000 121.800 ST 95 935 17 277
1996246N08148 1996 76 WP MM SALLY 1996-09-07 21:00:00 TS 19.2560 120.809 main 78 78 PPPP__________ WP231996 19.2344 120.622 137 5 19.2773 120.922 5 82 947 9 100 100 9 190 190 19.2851 120.879 4 82 955 19.2272 120.814 ST 95 935 19 276
1996246N08148 1996 76 WP MM SALLY 1996-09-08 00:00:00 TS 19.3750 119.800 85 945 tokyo main 138 138 OOOO__________ jtwc_wp WP231996 19.4000 119.700 135 4 19.4000 119.900 5 85 945 9 100 100 9 180 180 0 19.4000 119.800 5 87 950 19.3000 119.800 ST 95 935 19 281
1996246N08148 1996 76 WP MM SALLY 1996-09-08 03:00:00 TS 19.6075 118.810 main 232 232 PPPP__________ WP231996 19.5922 118.715 132 4 19.6342 118.915 5 85 942 9 100 100 9 180 180 19.6267 118.800 5 87 945 19.5768 118.808 ST 95 935 20 285
1996246N08148 1996 76 WP MM SALLY 1996-09-08 06:00:00 TS 19.8750 117.800 85 940 tokyo main 338 308 OOOO__________ jtwc_wp WP231996 19.8000 117.700 130 4 19.9000 117.900 5 85 940 9 100 100 9 180 180 0 19.9000 117.800 5 87 940 19.9000 117.800 ST 95 935 20 284
1996246N08148 1996 76 WP MM SALLY 1996-09-08 09:00:00 TS 20.0965 116.753 main 308 263 PPPP__________ WP231996 19.9994 116.700 127 4 20.1072 116.807 5 85 940 9 100 100 9 190 190 20.1646 116.750 5 92 937 20.1145 116.757 ST 90 942 20 282
1996246N08148 1996 76 WP MM SALLY 1996-09-08 12:00:00 TS 20.3000 115.700 85 940 tokyo main 259 205 OOOO__________ jtwc_wp WP231996 20.2000 115.700 125 4 20.3000 115.700 5 85 940 9 100 100 9 200 200 0 20.4000 115.700 5 97 935 20.3000 115.700 ST 85 950 20 281
1996246N08148 1996 76 WP MM SALLY 1996-09-08 15:00:00 TS 20.4867 114.676 main 205 152 PPPP__________ WP231996 20.3992 114.715 122 4 20.4992 114.642 5 85 940 9 100 100 9 200 200 20.5492 114.699 5 97 935 20.4994 114.650 ST 82 952 20 281
1996246N08148 1996 76 WP MM SALLY 1996-09-08 18:00:00 TS 20.6750 113.650 85 940 tokyo main 152 98 OOOO__________ jtwc_wp WP231996 20.6000 113.700 120 4 20.7000 113.600 5 85 940 9 100 100 9 200 200 0 20.7000 113.700 5 97 935 20.7000 113.600 T 80 955 20 281
1996246N08148 1996 76 WP MM SALLY 1996-09-08 21:00:00 TS 20.8813 112.593 main 94 44 PPPP__________ WP231996 20.7921 112.615 115 4 20.8842 112.557 5 80 945 9 85 85 9 180 180 20.9495 112.658 5 97 935 20.8995 112.542 T 77 958 20 282
1996246N08148 1996 76 WP MM SALLY 1996-09-09 00:00:00 TS 21.1000 111.525 75 950 tokyo main 39 0 OOOO__________ jtwc_wp WP231996 21.0000 111.500 110 3 21.1000 111.500 5 75 950 9 70 70 9 160 160 0 21.2000 111.600 5 97 935 21.1000 111.500 T 75 962 21 282
1996246N08148 1996 76 WP MM SALLY 1996-09-09 03:00:00 TS 21.3266 110.440 main 0 0 PPPP__________ WP231996 21.2419 110.392 102 3 21.4150 110.378 5 67 960 9 55 55 9 155 130 21.3501 110.504 5 77 947 21.2994 110.485 T 65 971 20 283
1996246N08148 1996 76 WP MM SALLY 1996-09-09 06:00:00 TS 21.5500 109.400 60 970 tokyo main 0 0 OOOO__________ jtwc_wp WP231996 21.5000 109.300 95 2 21.7000 109.300 4 60 970 9 40 40 3 150 100 0 21.5000 109.500 3 58 960 21.5000 109.500 STS 55 980 19 283
1996246N08148 1996 76 WP MM SALLY 1996-09-09 09:00:00 TS 21.7468 108.491 main 0 0 PPPP__________ WP231996 21.7417 108.242 85 2 21.7908 108.406 4 57 975 9 35 35 3 140 100 21.7554 108.772 3 43 976 21.6993 108.542 STS 47 986 18 283
1996246N08148 1996 76 WP MM SALLY 1996-09-09 12:00:00 TS 21.9500 107.543 55 980 tokyo main 0 0 OOOO__________ jtwc_wp WP231996 22.0000 107.200 75 1 21.9000 107.500 4 55 980 9 30 30 3 130 100 0 22.0000 108.000 1 29 992 21.9000 107.600 TS 40 992 20 283
1996246N08148 1996 76 WP MM SALLY 1996-09-09 15:00:00 TS 22.2112 106.397 main 0 0 PPPP__________ WP231996 22.3000 106.113 62 0 22.2140 106.299 4 50 986 9 3 105 90 22.1383 106.905 1 24 996 22.1012 106.653 TS 35 995 22 285
1996246N08148 1996 76 WP MM SALLY 1996-09-09 18:00:00 TS 22.5300 105.250 45 992 tokyo main 0 0 OOOO__________ jtwc_wp WP231996 22.6000 105.100 50 0 22.6000 105.200 3 45 992 0 9 80 80 0 22.2000 105.600 0 19 1000 22.3000 105.700 TD 30 998 20 290
1996246N08148 1996 76 WP MM SALLY 1996-09-09 21:00:00 TS 22.8952 104.392 main 0 0 PP____________ WP231996 22.8720 104.225 42 0 22.9185 104.559 3 996 0 9 0 TD 15 297
1996246N08148 1996 76 WP MM SALLY 1996-09-10 00:00:00 TS 23.2000 103.800 1000 tokyo main 0 0 OO____________ jtwc_wp WP231996 23.1000 103.500 35 0 23.3000 104.100 2 1000 0 0 0 13 303
1996246N08148 1996 76 WP MM SALLY 1996-09-10 03:00:00 TS 23.5719 103.242 main 0 0 PP____________ WP231996 23.2720 102.897 27 -1 23.8718 103.588 2 1001 0 0 12 309
1996246N08148 1996 76 WP MM SALLY 1996-09-10 06:00:00 TS 23.9714 102.743 1002 tokyo main 0 0 OO____________ jtwc_wp WP231996 23.4000 102.400 20 -1 24.4000 103.000 2 1002 0 0 0 12 304
1996246N08148 1996 76 WP MM SALLY 1996-09-10 09:00:00 TS 24.2755 102.119 main 0 0 PP____________ WP231996 23.5054 101.943 17 -1 24.6605 102.207 2 1003 0 0 13 294
1996246N08148 1996 76 WP MM SALLY 1996-09-10 12:00:00 TS 24.5000 101.425 1004 tokyo main 0 0 OO____________ jtwc_wp WP231996 23.6000 101.500 15 -1 24.8000 101.400 2 1004 0 0 0 14 298
1996246N08148 1996 76 WP MM SALLY 1996-09-10 15:00:00 TS 24.9423 100.748 main 0 0 _P____________ WP231996 -1 24.9423 100.748 2 1004 0 0 13 298
1996246N08148 1996 76 WP MM SALLY 1996-09-10 18:00:00 TS 25.1000 100.200 1004 tokyo main 0 _O____________ -1 25.1000 100.200 2 1004 0 0 0 10 288

デジタル台風データ・検索

IBTrACS Databaseについて

本データベースは、米国NOAAが公開する1842年以降の世界の熱帯低気圧のベストトラックデータアーカイブInternational Best Track Archive for Climate Stewardship (IBTrACS)を、ウェブで閲覧しやすい形式に変換したものです。

最終更新日:2021-10-19